Time;durP1;ratioP1;P1;durP2;ratioP2;P2;SDS_P1;SDS_P2;PMS_P1;PMS_P2;Temp;Humidity;BMP_temperature;BMP_pressure;BME280_temperature;BME280_humidity;BME280_pressure;Samples;Min_cycle;Max_cycle;Signal;HPM_P1;HPM_P2
2023/02/14 00:02:04;;;;;;;8.52;6.20;;;7.20;1.00;;;;;;5080230;28;20854;-64
2023/02/14 00:04:31;;;;;;;8.43;6.23;;;7.20;1.00;;;;;;5082998;28;20893;-64
2023/02/14 00:06:58;;;;;;;8.73;6.03;;;7.10;2.80;;;;;;5084617;28;20401;-64
2023/02/14 00:09:25;;;;;;;12.15;6.90;;;7.10;1.00;;;;;;5082450;28;20423;-65
2023/02/14 00:11:51;;;;;;;10.57;6.43;;;7.20;1.00;;;;;;5086750;28;20413;-64
2023/02/14 00:17:04;;;;;;;8.27;6.20;;;7.10;1.00;;;;;;5081056;28;20526;-65
2023/02/14 00:19:33;;;;;;;8.77;6.68;;;7.00;3.30;;;;;;5081161;28;20416;-64
2023/02/14 00:22:00;;;;;;;8.90;6.53;;;7.00;1.20;;;;;;5081077;28;20404;-64
2023/02/14 00:24:27;;;;;;;9.70;7.00;;;7.00;6.80;;;;;;5081150;28;20419;-64
2023/02/14 00:26:54;;;;;;;9.07;6.53;;;7.00;4.40;;;;;;5083167;28;20405;-64
2023/02/14 00:29:24;;;;;;;9.50;6.95;;;7.00;10.50;;;;;;5081292;28;20416;-64
2023/02/14 00:31:51;;;;;;;9.40;6.00;;;6.90;15.60;;;;;;5080632;28;20498;-64
2023/02/14 00:34:19;;;;;;;8.68;6.40;;;6.80;20.10;;;;;;5081964;28;20414;-64
2023/02/14 00:36:47;;;;;;;8.30;6.00;;;6.90;17.10;;;;;;5078970;28;20455;-64
2023/02/14 00:39:15;;;;;;;8.00;6.00;;;6.90;16.00;;;;;;5083530;28;20416;-65
2023/02/14 00:41:43;;;;;;;9.43;6.72;;;6.90;15.90;;;;;;5086385;28;20793;-63
2023/02/14 00:44:11;;;;;;;8.48;6.75;;;6.90;17.10;;;;;;5082987;28;20402;-63
2023/02/14 00:46:38;;;;;;;8.77;6.68;;;6.80;20.40;;;;;;5083668;28;20414;-64
2023/02/14 00:49:05;;;;;;;8.37;6.37;;;6.80;23.20;;;;;;5083393;28;20414;-63
2023/02/14 00:51:33;;;;;;;8.63;6.57;;;6.80;25.90;;;;;;5080685;28;20412;-62
2023/02/14 00:54:00;;;;;;;10.65;7.22;;;6.80;20.60;;;;;;5080042;28;20410;-62
2023/02/14 00:56:27;;;;;;;8.35;6.70;;;6.70;23.30;;;;;;5070614;28;20411;-62
2023/02/14 00:58:54;;;;;;;9.97;6.60;;;6.60;29.00;;;;;;5071166;28;20764;-62
2023/02/14 01:01:20;;;;;;;9.45;6.63;;;6.70;34.80;;;;;;5070570;28;20412;-63
2023/02/14 01:03:47;;;;;;;9.02;6.28;;;6.60;32.10;;;;;;5070996;28;20874;-63
2023/02/14 01:06:14;;;;;;;10.50;6.85;;;6.60;33.30;;;;;;5070690;28;20411;-62
2023/02/14 01:08:42;;;;;;;10.18;6.60;;;6.70;35.90;;;;;;5078515;28;20408;-62
2023/02/14 01:11:11;;;;;;;9.20;6.88;;;6.70;32.30;;;;;;5082190;28;20419;-62
2023/02/14 01:13:38;;;;;;;9.20;6.95;;;6.70;28.20;;;;;;5086103;28;20419;-62
2023/02/14 01:16:07;;;;;;;8.52;6.28;;;6.80;22.70;;;;;;5079824;28;20417;-62
2023/02/14 01:18:34;;;;;;;8.07;6.20;;;6.80;21.30;;;;;;5081659;28;20792;-62
2023/02/14 01:21:14;;;;;;;9.45;6.50;;;6.90;19.30;;;;;;5080622;28;20874;-63
2023/02/14 01:23:42;;;;;;;8.65;6.57;;;6.80;15.60;;;;;;5079793;28;20844;-63
2023/02/14 01:26:10;;;;;;;9.70;6.45;;;6.80;17.80;;;;;;5079987;28;20419;-62
2023/02/14 01:28:37;;;;;;;9.57;6.28;;;6.60;23.50;;;;;;5079631;28;20404;-63
2023/02/14 01:31:09;;;;;;;9.07;6.50;;;6.70;25.60;;;;;;5080681;28;20416;-63
2023/02/14 01:33:36;;;;;;;9.63;7.07;;;6.70;22.00;;;;;;5070618;28;20411;-62
2023/02/14 01:36:03;;;;;;;9.23;6.72;;;6.60;24.70;;;;;;5070863;28;20411;-64
2023/02/14 01:38:29;;;;;;;8.35;5.93;;;6.60;23.90;;;;;;5070606;28;20423;-62
2023/02/14 01:40:58;;;;;;;9.38;6.47;;;6.50;32.50;;;;;;5078843;28;20819;-62
2023/02/14 01:43:25;;;;;;;7.55;6.18;;;6.50;29.10;;;;;;5083532;28;20415;-62
2023/02/14 01:45:51;;;;;;;9.20;6.37;;;6.60;25.10;;;;;;5084153;28;20504;-62
2023/02/14 01:48:21;;;;;;;8.27;6.55;;;6.60;24.90;;;;;;5083829;28;20416;-63
2023/02/14 01:50:50;;;;;;;9.43;6.25;;;6.60;25.20;;;;;;5082017;28;20409;-62
2023/02/14 01:53:21;;;;;;;7.93;6.38;;;6.70;22.60;;;;;;5080932;28;20418;-62
2023/02/14 01:55:53;;;;;;;8.50;6.47;;;6.60;20.80;;;;;;5070208;28;20461;-63
2023/02/14 01:58:25;;;;;;;8.90;6.38;;;6.70;20.40;;;;;;5070430;28;20473;-63
2023/02/14 02:00:58;;;;;;;7.20;5.97;;;6.70;15.20;;;;;;5079840;28;20449;-63
2023/02/14 02:03:27;;;;;;;8.18;6.43;;;6.70;13.70;;;;;;5079088;28;20875;-62
2023/02/14 02:05:59;;;;;;;7.88;6.60;;;6.70;10.20;;;;;;5079773;28;20410;-63
2023/02/14 02:08:26;;;;;;;9.13;6.47;;;6.60;14.40;;;;;;5079076;28;20420;-63
2023/02/14 02:10:53;;;;;;;9.00;6.38;;;6.60;18.30;;;;;;5084094;28;20459;-62
2023/02/14 02:13:22;;;;;;;8.77;6.73;;;6.60;17.50;;;;;;5081960;28;20411;-62
2023/02/14 02:15:59;;;;;;;8.63;6.53;;;6.40;21.90;;;;;;5080756;28;20410;-63
2023/02/14 02:18:36;;;;;;;9.13;6.88;;;6.40;25.10;;;;;;5081304;28;20847;-63
2023/02/14 02:21:32;;;;;;;10.95;7.00;;;6.30;32.90;;;;;;5081089;28;20881;-63
2023/02/14 02:24:26;;;;;;;9.30;6.90;;;6.20;45.80;;;;;;5079945;28;20838;-63
2023/02/14 02:27:13;;;;;;;9.30;6.55;;;6.20;48.70;;;;;;5069771;28;20454;-63
2023/02/14 02:30:12;;;;;;;10.50;7.53;;;6.20;52.50;;;;;;5077897;28;20818;-63
2023/02/14 02:33:28;;;;;;;8.75;6.97;;;6.20;50.40;;;;;;5073733;28;20452;-63
2023/02/14 02:36:14;;;;;;;10.00;7.25;;;6.10;54.80;;;;;;5084691;28;20483;-62
2023/02/14 02:38:54;;;;;;;9.07;6.75;;;6.00;65.70;;;;;;5082941;28;20430;-63
2023/02/14 02:41:29;;;;;;;10.05;7.65;;;5.90;74.10;;;;;;5081967;28;21159;-63
2023/02/14 02:44:09;;;;;;;9.85;7.13;;;6.00;76.80;;;;;;5085057;28;20849;-63
2023/02/14 02:46:48;;;;;;;11.85;7.30;;;5.90;77.70;;;;;;5086649;28;20437;-63
2023/02/14 02:55:11;;;;;;;11.60;8.27;;;6.00;70.00;;;;;;5085205;28;20448;-62
2023/02/14 02:57:40;;;;;;;10.93;7.90;;;6.00;74.20;;;;;;5083585;28;20410;-62
2023/02/14 03:00:11;;;;;;;9.15;7.55;;;6.00;73.50;;;;;;5082293;28;20423;-62
2023/02/14 03:05:22;;;;;;;10.43;7.60;;;6.00;77.20;;;;;;5072326;28;20942;-63
2023/02/14 03:07:50;;;;;;;10.52;8.23;;;6.00;78.00;;;;;;5072817;28;20403;-63
2023/02/14 03:10:19;;;;;;;9.80;7.75;;;6.00;78.50;;;;;;5075937;28;20411;-63
2023/02/14 03:13:21;;;;;;;12.50;7.72;;;6.00;79.60;;;;;;5085401;28;20889;-62
2023/02/14 03:16:32;;;;;;;13.50;8.43;;;6.00;77.90;;;;;;5073109;28;20829;-63
2023/02/14 03:22:21;;;;;;;12.10;8.88;;;6.10;74.90;;;;;;5077543;28;20824;-62
2023/02/14 03:24:56;;;;;;;12.25;8.75;;;6.00;84.00;;;;;;5083941;28;20455;-62
2023/02/14 03:27:28;;;;;;;12.75;9.30;;;6.00;87.50;;;;;;5082237;28;20408;-63
2023/02/14 03:30:00;;;;;;;11.38;8.80;;;6.00;90.20;;;;;;5082023;28;20411;-62
2023/02/14 03:32:34;;;;;;;13.13;9.00;;;5.90;91.80;;;;;;5083539;28;20429;-62
2023/02/14 03:35:10;;;;;;;13.45;9.70;;;6.00;91.70;;;;;;5084450;28;20485;-62
2023/02/14 03:37:42;;;;;;;12.50;9.80;;;6.10;90.20;;;;;;5084433;28;20417;-63
2023/02/14 03:40:16;;;;;;;13.23;8.77;;;6.20;78.40;;;;;;5082155;28;20427;-62
2023/02/14 03:42:47;;;;;;;12.27;9.30;;;6.30;67.40;;;;;;5087432;28;20950;-62
2023/02/14 03:45:20;;;;;;;12.93;9.38;;;6.20;61.10;;;;;;5082979;28;20411;-63
2023/02/14 03:47:50;;;;;;;14.48;9.63;;;6.20;74.20;;;;;;5084919;28;20795;-63
2023/02/14 03:50:18;;;;;;;13.40;9.90;;;6.10;74.90;;;;;;5077097;28;20411;-63
2023/02/14 03:52:49;;;;;;;14.30;10.10;;;6.10;74.40;;;;;;5082120;28;20434;-63
2023/02/14 03:55:23;;;;;;;15.02;10.07;;;6.10;79.60;;;;;;5081346;28;20433;-63
2023/02/14 03:57:57;;;;;;;17.65;11.02;;;6.00;85.00;;;;;;5072591;28;20407;-62
2023/02/14 04:00:24;;;;;;;14.60;10.77;;;6.00;87.50;;;;;;5072541;28;20415;-62
2023/02/14 04:02:55;;;;;;;15.75;10.23;;;6.00;86.40;;;;;;5072656;28;20408;-63
2023/02/14 04:05:26;;;;;;;14.45;10.30;;;6.00;90.00;;;;;;5073174;28;20833;-63
2023/02/14 04:07:54;;;;;;;16.23;10.98;;;5.90;92.30;;;;;;5075125;28;20447;-63
2023/02/14 04:10:23;;;;;;;15.43;11.20;;;6.00;92.70;;;;;;5083167;28;20417;-63
2023/02/14 04:12:51;;;;;;;15.18;11.27;;;6.00;92.10;;;;;;5088428;28;20410;-63
2023/02/14 04:15:18;;;;;;;17.35;11.93;;;6.00;94.60;;;;;;5081537;28;20420;-63
2023/02/14 04:20:29;;;;;;;17.88;11.80;;;6.00;93.40;;;;;;5082184;28;20414;-63
2023/02/14 04:22:56;;;;;;;17.90;12.33;;;5.90;93.60;;;;;;5080310;28;20925;-64
2023/02/14 04:25:24;;;;;;;19.55;12.73;;;5.90;95.40;;;;;;5082881;28;20409;-63
2023/02/14 04:27:51;;;;;;;18.73;12.52;;;5.90;95.40;;;;;;5082298;28;20934;-63
2023/02/14 04:30:19;;;;;;;19.83;12.85;;;5.90;96.50;;;;;;5081012;28;20433;-63
2023/02/14 04:32:46;;;;;;;20.75;13.65;;;6.00;95.60;;;;;;5081460;28;20826;-62
2023/02/14 04:35:13;;;;;;;21.52;13.00;;;5.90;95.00;;;;;;5083229;28;20417;-63
2023/02/14 04:37:39;;;;;;;18.77;13.18;;;6.00;95.40;;;;;;5081000;28;20485;-64
2023/02/14 04:40:07;;;;;;;18.73;13.43;;;6.00;94.60;;;;;;5081662;28;20557;-63
2023/02/14 04:42:35;;;;;;;18.33;12.73;;;6.00;93.40;;;;;;5085526;28;20411;-63
2023/02/14 04:45:02;;;;;;;21.98;14.00;;;5.90;94.50;;;;;;5081034;28;20484;-63
2023/02/14 04:47:29;;;;;;;22.17;13.77;;;5.90;93.30;;;;;;5088136;28;20419;-63
2023/02/14 04:49:55;;;;;;;17.73;13.27;;;5.90;94.60;;;;;;5081815;28;20479;-63
2023/02/14 04:52:22;;;;;;;19.57;13.63;;;5.80;95.20;;;;;;5082132;28;20478;-62
2023/02/14 04:54:49;;;;;;;20.58;13.82;;;5.80;95.90;;;;;;5080491;28;20412;-62
2023/02/14 04:57:15;;;;;;;21.92;13.93;;;5.70;99.90;;;;;;5081070;28;20411;-62
2023/02/14 04:59:43;;;;;;;21.23;14.50;;;5.80;99.90;;;;;;5082794;28;20479;-62
2023/02/14 05:02:10;;;;;;;21.73;14.82;;;5.80;99.70;;;;;;5081317;28;20438;-63
2023/02/14 05:04:37;;;;;;;21.27;15.10;;;5.70;99.90;;;;;;5079630;28;20940;-62
2023/02/14 05:07:03;;;;;;;22.83;15.50;;;5.70;99.90;;;;;;5082053;28;20413;-63
2023/02/14 05:09:30;;;;;;;23.70;15.83;;;5.60;99.90;;;;;;5081207;28;20410;-63
2023/02/14 05:11:57;;;;;;;27.02;17.17;;;5.60;99.90;;;;;;5084121;28;20828;-62
2023/02/14 05:14:23;;;;;;;27.98;17.85;;;5.60;99.90;;;;;;5080939;28;20465;-63
2023/02/14 05:16:51;;;;;;;26.58;17.15;;;5.60;99.90;;;;;;5079554;28;20415;-63
2023/02/14 05:19:18;;;;;;;27.15;17.88;;;5.70;99.90;;;;;;5082076;28;20471;-57
2023/02/14 05:21:45;;;;;;;29.73;18.33;;;5.70;99.90;;;;;;5078720;28;20471;-56
2023/02/14 05:24:12;;;;;;;27.65;17.45;;;5.70;99.90;;;;;;5079812;28;20462;-58
2023/02/14 05:26:39;;;;;;;26.53;18.47;;;5.70;99.90;;;;;;5080642;28;20413;-57
2023/02/14 05:29:06;;;;;;;26.47;17.53;;;5.60;99.90;;;;;;5082247;28;20402;-59
2023/02/14 05:31:33;;;;;;;28.70;18.88;;;5.60;99.90;;;;;;5079746;28;20465;-58
2023/02/14 05:34:01;;;;;;;30.13;18.83;;;5.60;99.90;;;;;;5080078;28;20415;-58
2023/02/14 05:36:28;;;;;;;27.48;18.73;;;5.70;99.90;;;;;;5081765;28;20406;-58
2023/02/14 05:38:54;;;;;;;29.60;18.25;;;5.70;99.90;;;;;;5081202;28;20419;-59
2023/02/14 05:41:21;;;;;;;29.55;19.45;;;5.70;99.90;;;;;;5082962;28;20416;-64
2023/02/14 05:43:47;;;;;;;30.07;19.07;;;5.70;99.90;;;;;;5083121;28;20419;-58
2023/02/14 05:46:14;;;;;;;31.30;19.75;;;5.60;99.90;;;;;;5082123;28;20419;-59
2023/02/14 05:48:41;;;;;;;33.63;20.67;;;5.50;99.90;;;;;;5085594;28;20461;-59
2023/02/14 05:51:10;;;;;;;32.10;20.15;;;5.50;99.90;;;;;;5080351;28;20913;-59
2023/02/14 05:53:37;;;;;;;31.70;20.17;;;5.50;99.90;;;;;;5081338;28;20406;-59
2023/02/14 05:56:04;;;;;;;32.43;20.17;;;5.40;99.90;;;;;;5078090;28;20541;-59
2023/02/14 05:58:31;;;;;;;34.35;21.60;;;5.40;99.90;;;;;;5081558;28;20745;-59
2023/02/14 06:00:58;;;;;;;32.90;20.42;;;5.40;99.90;;;;;;5079790;28;20411;-59
2023/02/14 06:03:25;;;;;;;35.55;21.52;;;5.30;99.90;;;;;;5079309;28;20419;-59
2023/02/14 06:05:52;;;;;;;34.22;21.85;;;5.30;99.90;;;;;;5081910;28;20490;-59
2023/02/14 06:08:20;;;;;;;32.80;21.58;;;5.30;99.90;;;;;;5081400;28;20414;-62
2023/02/14 06:10:47;;;;;;;35.20;22.38;;;5.30;99.90;;;;;;5086000;28;20876;-61
2023/02/14 06:13:13;;;;;;;36.30;22.80;;;5.40;99.90;;;;;;5083753;28;20522;-64
2023/02/14 06:15:40;;;;;;;35.83;22.40;;;5.30;99.90;;;;;;5080987;28;20413;-63
2023/02/14 06:18:07;;;;;;;33.87;22.33;;;5.20;99.90;;;;;;5081714;28;20410;-68
2023/02/14 06:20:34;;;;;;;37.00;22.48;;;5.30;99.90;;;;;;5080581;28;20428;-65
2023/02/14 06:23:01;;;;;;;32.78;20.63;;;5.50;99.90;;;;;;5079463;28;20779;-64
2023/02/14 06:25:30;;;;;;;33.35;21.27;;;5.60;99.90;;;;;;5081443;28;20406;-65
2023/02/14 06:27:57;;;;;;;32.03;21.05;;;5.90;99.90;;;;;;5084863;28;20961;-66
2023/02/14 06:30:24;;;;;;;35.58;22.80;;;6.00;99.90;;;;;;5081255;28;20417;-65
2023/02/14 06:32:51;;;;;;;35.58;22.80;;;6.10;99.90;;;;;;5080767;28;20448;-66
2023/02/14 06:35:18;;;;;;;38.50;22.73;;;6.00;96.10;;;;;;5079486;28;20461;-64
2023/02/14 06:37:44;;;;;;;34.80;22.25;;;6.10;91.80;;;;;;5083194;28;20410;-64
2023/02/14 06:40:13;;;;;;;33.63;22.40;;;6.00;83.40;;;;;;5080393;28;20518;-65
2023/02/14 06:42:41;;;;;;;36.53;22.50;;;6.00;87.40;;;;;;5087339;28;20475;-65
2023/02/14 06:45:08;;;;;;;36.65;23.42;;;5.90;87.60;;;;;;5079120;28;20411;-65
2023/02/14 06:47:35;;;;;;;36.65;23.10;;;5.70;93.80;;;;;;5086030;28;20411;-65
2023/02/14 06:50:03;;;;;;;35.88;22.52;;;5.60;99.00;;;;;;5079763;28;20414;-63
2023/02/14 06:52:30;;;;;;;33.72;21.67;;;5.50;99.90;;;;;;5087023;28;20500;-63
2023/02/14 06:54:57;;;;;;;35.38;21.70;;;5.50;99.90;;;;;;5079859;28;20471;-63
2023/02/14 06:57:24;;;;;;;34.95;21.83;;;5.50;99.90;;;;;;5075214;28;20423;-64
2023/02/14 06:59:52;;;;;;;34.53;22.15;;;5.50;99.90;;;;;;5082954;28;20433;-63
2023/02/14 07:02:18;;;;;;;33.70;21.30;;;5.50;99.90;;;;;;5080107;28;20418;-63
2023/02/14 07:04:45;;;;;;;33.20;20.55;;;5.60;99.90;;;;;;5078861;28;20416;-64
2023/02/14 07:07:12;;;;;;;30.70;19.57;;;5.70;99.90;;;;;;5082427;28;20413;-65
2023/02/14 07:09:39;;;;;;;30.15;19.95;;;5.70;98.90;;;;;;5083978;28;20410;-65
2023/02/14 07:12:06;;;;;;;28.73;18.95;;;5.60;97.70;;;;;;5088168;28;20414;-64
2023/02/14 07:14:32;;;;;;;27.73;18.40;;;5.70;98.10;;;;;;5081370;28;20471;-63
2023/02/14 07:17:00;;;;;;;29.67;18.10;;;5.80;95.30;;;;;;5084932;28;20406;-64
2023/02/14 07:19:27;;;;;;;28.53;18.57;;;5.90;93.10;;;;;;5085955;28;20515;-62
2023/02/14 07:21:54;;;;;;;30.38;19.35;;;5.80;89.30;;;;;;5090016;28;20413;-63
2023/02/14 07:24:20;;;;;;;29.00;19.08;;;5.90;86.50;;;;;;5089975;28;20414;-62
2023/02/14 07:26:47;;;;;;;27.70;18.75;;;6.00;82.00;;;;;;5092944;28;20746;-62
2023/02/14 07:29:14;;;;;;;24.15;15.63;;;6.00;74.30;;;;;;5080687;28;20415;-63
2023/02/14 07:31:41;;;;;;;26.95;17.02;;;5.90;65.60;;;;;;5086833;28;20473;-62
2023/02/14 07:34:09;;;;;;;23.73;15.68;;;6.00;63.80;;;;;;5085125;28;20826;-62
2023/02/14 07:36:37;;;;;;;24.17;16.20;;;5.90;69.00;;;;;;5072637;28;20407;-62
2023/02/14 07:39:04;;;;;;;25.33;15.18;;;5.80;71.50;;;;;;5088975;28;20466;-63
2023/02/14 07:41:31;;;;;;;25.83;14.90;;;5.80;75.40;;;;;;5090287;28;20460;-63
2023/02/14 07:43:57;;;;;;;21.60;14.02;;;5.70;81.00;;;;;;5085703;28;20949;-62
2023/02/14 07:46:24;;;;;;;22.17;14.55;;;5.80;83.10;;;;;;5088011;28;20417;-62
2023/02/14 07:48:51;;;;;;;20.17;13.43;;;5.90;73.60;;;;;;5088868;28;20407;-61
2023/02/14 07:51:19;;;;;;;19.35;13.43;;;6.00;65.80;;;;;;5086548;28;20500;-62
2023/02/14 07:53:46;;;;;;;21.60;13.50;;;6.10;59.30;;;;;;5089746;28;20475;-63
2023/02/14 07:56:12;;;;;;;19.25;12.88;;;6.10;52.30;;;;;;5090125;28;20432;-64
2023/02/14 07:58:39;;;;;;;22.00;13.30;;;6.00;57.90;;;;;;5082039;28;20473;-62
2023/02/14 08:01:06;;;;;;;17.35;12.02;;;6.00;55.20;;;;;;5088948;28;20422;-62
2023/02/14 08:03:33;;;;;;;18.38;11.93;;;6.20;47.40;;;;;;5085062;28;20415;-62
2023/02/14 08:06:00;;;;;;;17.42;11.40;;;6.30;32.20;;;;;;5086184;28;20408;-63
2023/02/14 08:08:30;;;;;;;17.37;10.97;;;6.40;32.30;;;;;;5079132;28;20474;-63
2023/02/14 08:10:57;;;;;;;17.85;12.13;;;6.60;21.70;;;;;;5083971;28;20471;-62
2023/02/14 08:13:24;;;;;;;17.48;11.90;;;6.80;11.20;;;;;;5089194;28;20421;-63
2023/02/14 08:16:08;;;;;;;16.83;10.70;;;6.90;1.00;;;;;;5087557;28;20459;-63
2023/02/14 08:18:37;;;;;;;15.47;10.50;;;7.10;1.00;;;;;;5089999;28;20414;-62
2023/02/14 08:21:05;;;;;;;15.10;10.65;;;7.10;1.00;;;;;;5081088;28;20431;-63
2023/02/14 08:23:33;;;;;;;16.30;10.90;;;7.30;1.00;;;;;;5079971;28;20407;-62
2023/02/14 08:25:59;;;;;;;15.98;11.07;;;7.40;1.00;;;;;;5071099;28;20477;-63
2023/02/14 08:28:27;;;;;;;15.65;11.07;;;7.40;1.00;;;;;;5071079;28;20415;-62
2023/02/14 08:30:54;;;;;;;15.15;10.70;;;7.40;1.00;;;;;;5071189;28;20404;-63
2023/02/14 08:33:21;;;;;;;15.65;11.70;;;7.60;1.00;;;;;;5072817;28;20894;-63
2023/02/14 08:35:48;;;;;;;16.95;10.80;;;7.60;1.00;;;;;;5084255;28;20884;-61
2023/02/14 08:38:15;;;;;;;18.70;11.53;;;7.70;1.00;;;;;;5079713;28;20416;-63
2023/02/14 08:40:43;;;;;;;16.20;11.38;;;7.80;1.00;;;;;;5087197;28;20491;-62
2023/02/14 08:43:10;;;;;;;17.58;11.52;;;7.90;1.00;;;;;;5089268;28;20406;-63
2023/02/14 08:45:37;;;;;;;16.17;11.20;;;8.00;1.00;;;;;;5082888;28;20795;-59
2023/02/14 08:48:05;;;;;;;16.10;11.48;;;8.20;1.00;;;;;;5089020;28;21018;-63
2023/02/14 08:50:32;;;;;;;19.13;12.55;;;8.20;1.00;;;;;;5080011;28;20404;-61
2023/02/14 08:52:59;;;;;;;15.38;10.68;;;8.40;1.00;;;;;;5079506;28;20419;-63
2023/02/14 08:55:26;;;;;;;15.90;10.85;;;8.40;1.00;;;;;;5082133;28;20889;-62
2023/02/14 08:57:55;;;;;;;19.75;11.05;;;8.40;1.00;;;;;;5083772;28;20501;-61
2023/02/14 09:00:22;;;;;;;14.88;10.73;;;8.60;1.00;;;;;;5087380;28;20476;-60
2023/02/14 09:02:50;;;;;;;16.17;10.77;;;8.80;1.00;;;;;;5087524;28;20410;-60
2023/02/14 09:05:17;;;;;;;14.68;11.15;;;8.90;99.90;;;;;;5087281;28;20416;-62
2023/02/14 09:07:44;;;;;;;16.15;10.68;;;9.00;99.90;;;;;;5084118;28;20419;-62
2023/02/14 09:10:11;;;;;;;14.05;10.63;;;9.00;99.90;;;;;;5082450;28;20886;-61
2023/02/14 09:12:39;;;;;;;13.50;10.23;;;9.20;1.00;;;;;;5086051;28;20411;-61
2023/02/14 09:15:08;;;;;;;15.50;10.48;;;9.40;99.90;;;;;;5083243;28;20469;-61
2023/02/14 09:17:35;;;;;;;14.18;10.02;;;9.50;1.00;;;;;;5090903;28;20414;-63
2023/02/14 09:20:02;;;;;;;13.30;9.63;;;9.60;70.40;;;;;;5090375;28;20433;-61
2023/02/14 09:22:29;;;;;;;14.43;10.45;;;9.80;1.00;;;;;;5086135;28;20433;-62
2023/02/14 09:24:55;;;;;;;14.50;10.30;;;9.70;18.90;;;;;;5079675;28;20412;-62
2023/02/14 09:27:22;;;;;;;15.27;10.90;;;9.60;99.90;;;;;;5079356;28;20415;-65
2023/02/14 09:29:48;;;;;;;14.05;9.55;;;9.50;99.90;;;;;;5081225;28;20402;-63
2023/02/14 09:32:16;;;;;;;13.90;10.10;;;9.70;99.90;;;;;;5077746;28;20439;-62
2023/02/14 09:34:43;;;;;;;15.63;10.57;;;9.60;99.90;;;;;;5081652;28;20493;-64
2023/02/14 09:37:10;;;;;;;14.45;10.32;;;9.60;99.90;;;;;;5078512;28;20457;-64
2023/02/14 09:39:37;;;;;;;17.60;10.10;;;9.80;1.00;;;;;;5079338;28;20805;-64
2023/02/14 09:42:19;;;;;;;17.98;12.02;;;10.00;99.90;;;;;;5086531;28;20467;-64
2023/02/14 09:44:50;;;;;;;16.43;11.93;;;10.20;99.90;;;;;;5081364;28;20553;-64
2023/02/14 09:47:23;;;;;;;14.95;10.00;;;10.40;99.90;;;;;;5082785;28;20408;-64
2023/02/14 09:49:51;;;;;;;13.37;9.60;;;10.50;99.90;;;;;;5079778;28;20558;-64
2023/02/14 09:52:20;;;;;;;14.70;9.90;;;10.60;99.90;;;;;;5079625;28;20468;-64
2023/02/14 09:54:53;;;;;;;14.33;10.23;;;10.60;99.90;;;;;;5078276;28;20411;-67
2023/02/14 09:57:28;;;;;;;15.05;10.60;;;10.90;99.90;;;;;;5079001;28;20412;-64
2023/02/14 09:59:59;;;;;;;15.43;11.20;;;10.80;99.90;;;;;;5069371;28;20810;-62
2023/02/14 10:02:40;;;;;;;16.17;10.40;;;10.90;99.90;;;;;;5070248;28;20415;-63
2023/02/14 10:05:12;;;;;;;14.37;9.97;;;10.90;94.50;;;;;;5069706;28;20439;-64
2023/02/14 10:07:51;;;;;;;14.82;10.43;;;10.80;71.20;;;;;;5070175;28;20813;-63
2023/02/14 10:10:24;;;;;;;14.18;9.95;;;10.80;99.90;;;;;;5079710;28;20426;-64
2023/02/14 10:12:54;;;;;;;14.52;10.18;;;10.90;56.20;;;;;;5082379;28;20512;-62
2023/02/14 10:15:25;;;;;;;14.02;10.35;;;11.10;99.90;;;;;;5079776;28;20890;-62
2023/02/14 10:17:58;;;;;;;16.58;10.77;;;11.30;1.00;;;;;;5080522;28;20475;-64
2023/02/14 10:20:28;;;;;;;14.77;10.40;;;11.20;73.30;;;;;;5080740;28;20427;-64
2023/02/14 10:23:03;;;;;;;15.95;10.85;;;11.30;1.00;;;;;;5078830;28;20917;-62
2023/02/14 10:25:38;;;;;;;14.90;10.13;;;11.30;1.00;;;;;;5079110;28;20502;-63
2023/02/14 10:28:11;;;;;;;14.23;10.05;;;11.40;1.00;;;;;;5078673;28;20419;-63
2023/02/14 10:30:42;;;;;;;16.15;10.85;;;11.40;1.00;;;;;;5079178;28;20476;-60
2023/02/14 10:33:16;;;;;;;13.50;9.93;;;11.60;99.90;;;;;;5078715;28;20408;-63
2023/02/14 10:35:47;;;;;;;13.60;9.93;;;11.80;99.90;;;;;;5079383;28;20472;-62
2023/02/14 10:38:28;;;;;;;12.38;8.93;;;12.00;99.90;;;;;;5076993;28;20438;-70
2023/02/14 10:41:28;;;;;;;13.80;9.60;;;12.10;99.90;;;;;;5081279;28;20421;-69
2023/02/14 10:44:04;;;;;;;12.73;9.23;;;12.10;99.90;;;;;;5078859;28;21138;-69
2023/02/14 10:46:39;;;;;;;13.37;9.47;;;12.30;91.20;;;;;;5081376;28;20801;-65
2023/02/14 10:49:27;;;;;;;13.15;9.43;;;12.40;79.30;;;;;;5085577;28;20417;-65
2023/02/14 10:52:01;;;;;;;13.88;10.32;;;12.50;20.20;;;;;;5082277;28;20408;-62
2023/02/14 10:54:34;;;;;;;14.35;10.05;;;12.70;1.00;;;;;;5082263;28;20407;-64
2023/02/14 10:57:05;;;;;;;12.82;9.88;;;12.70;58.70;;;;;;5082895;28;20462;-64
2023/02/14 10:59:39;;;;;;;15.45;10.25;;;12.80;1.00;;;;;;5084172;28;20467;-64
2023/02/14 11:02:08;;;;;;;13.80;10.05;;;12.90;1.00;;;;;;5084137;28;20854;-63
2023/02/14 11:04:36;;;;;;;13.50;9.57;;;12.50;1.00;;;;;;5082007;28;20407;-65
2023/02/14 11:07:03;;;;;;;13.02;9.27;;;12.70;29.60;;;;;;5082412;28;20416;-65
2023/02/14 11:09:29;;;;;;;12.02;9.63;;;12.90;1.00;;;;;;5083612;28;20421;-65
2023/02/14 11:11:59;;;;;;;15.40;9.38;;;12.80;1.00;;;;;;5089447;28;20414;-66
2023/02/14 11:14:28;;;;;;;14.98;9.88;;;12.90;1.00;;;;;;5083464;28;20439;-64
2023/02/14 11:16:57;;;;;;;13.43;9.38;;;12.80;1.00;;;;;;5082889;28;20417;-64
2023/02/14 11:19:27;;;;;;;14.82;9.20;;;12.90;1.00;;;;;;5083954;28;20512;-65
2023/02/14 11:21:56;;;;;;;12.48;9.30;;;12.90;1.00;;;;;;5082561;28;20490;-63
2023/02/14 11:24:30;;;;;;;11.88;8.70;;;13.10;1.00;;;;;;5084776;28;20938;-63
2023/02/14 11:26:59;;;;;;;13.02;9.50;;;12.80;1.00;;;;;;5082420;28;20421;-64
2023/02/14 11:29:30;;;;;;;12.30;9.20;;;12.80;1.00;;;;;;5080702;28;20422;-63
2023/02/14 11:31:57;;;;;;;13.00;9.55;;;13.10;1.00;;;;;;5083012;28;20410;-62
2023/02/14 11:34:35;;;;;;;12.98;8.95;;;13.30;1.00;;;;;;5081237;28;20481;-64
2023/02/14 11:37:03;;;;;;;15.40;9.67;;;13.50;1.00;;;;;;5080632;28;20600;-64
2023/02/14 11:39:33;;;;;;;12.37;9.30;;;13.60;1.00;;;;;;5081287;28;20419;-65
2023/02/14 11:42:03;;;;;;;13.15;9.00;;;13.60;1.00;;;;;;5088743;28;20425;-64
2023/02/14 11:44:31;;;;;;;12.40;8.23;;;13.30;99.90;;;;;;5082210;28;20917;-64
2023/02/14 11:47:17;;;;;;;12.18;9.50;;;13.40;1.00;;;;;;5087097;28;20422;-64
2023/02/14 11:49:56;;;;;;;13.20;9.52;;;13.40;1.00;;;;;;5083018;28;20454;-65
2023/02/14 11:52:25;;;;;;;12.77;9.40;;;13.30;1.00;;;;;;5083082;28;20517;-65
2023/02/14 11:54:53;;;;;;;13.88;9.57;;;13.30;99.90;;;;;;5071897;28;20415;-65
2023/02/14 11:57:26;;;;;;;12.48;9.70;;;13.40;99.90;;;;;;5071924;28;20420;-65
2023/02/14 11:59:54;;;;;;;13.18;8.85;;;13.60;99.90;;;;;;5076092;28;20881;-65
2023/02/14 12:02:26;;;;;;;11.73;8.43;;;13.60;99.90;;;;;;5080770;28;20543;-64
2023/02/14 12:04:57;;;;;;;12.07;8.52;;;13.60;99.90;;;;;;5080980;28;20461;-64
2023/02/14 12:07:29;;;;;;;13.45;8.98;;;13.60;99.90;;;;;;5080678;28;20492;-65
2023/02/14 12:10:19;;;;;;;13.65;8.77;;;13.50;99.90;;;;;;5082750;28;20454;-63
2023/02/14 12:12:51;;;;;;;11.25;8.48;;;13.50;99.90;;;;;;5087690;28;20406;-64
2023/02/14 12:15:39;;;;;;;11.40;8.38;;;13.70;99.90;;;;;;5085632;28;20459;-64
2023/02/14 12:18:37;;;;;;;11.82;8.52;;;13.80;99.90;;;;;;5071239;28;20474;-65
2023/02/14 12:21:16;;;;;;;15.00;9.00;;;14.00;99.90;;;;;;5061811;28;20428;-63
2023/02/14 12:23:54;;;;;;;12.40;9.00;;;14.00;99.90;;;;;;5075282;28;20543;-63
2023/02/14 12:26:28;;;;;;;12.20;8.80;;;14.10;99.90;;;;;;5085867;28;20411;-64
2023/02/14 12:29:02;;;;;;;12.70;8.57;;;13.70;99.90;;;;;;5080217;28;20414;-64
2023/02/14 12:31:30;;;;;;;13.13;8.23;;;13.80;99.90;;;;;;5091897;28;20465;-62
2023/02/14 12:33:57;;;;;;;12.65;8.52;;;13.70;99.90;;;;;;5088410;28;20845;-64
2023/02/14 12:36:42;;;;;;;13.27;8.60;;;13.90;99.90;;;;;;5083184;28;20423;-63
2023/02/14 12:39:19;;;;;;;12.68;9.27;;;14.00;99.90;;;;;;5082687;28;20827;-64
2023/02/14 12:41:58;;;;;;;12.52;8.65;;;14.00;99.90;;;;;;5086416;28;20475;-65
2023/02/14 12:44:37;;;;;;;12.40;8.43;;;14.20;99.90;;;;;;5085240;28;20419;-62
2023/02/14 12:47:19;;;;;;;11.88;8.48;;;14.30;99.90;;;;;;5087171;28;20453;-63
2023/02/14 12:50:15;;;;;;;10.50;8.37;;;14.30;99.90;;;;;;5080268;28;20411;-61
2023/02/14 12:53:23;;;;;;;12.02;8.32;;;14.50;99.90;;;;;;5068445;28;20489;-60
2023/02/14 12:56:04;;;;;;;10.90;8.35;;;14.10;99.90;;;;;;5071140;28;20454;-64
2023/02/14 12:58:44;;;;;;;12.20;8.50;;;14.10;99.90;;;;;;5071104;28;20419;-63
2023/02/14 13:01:47;;;;;;;13.23;8.57;;;14.00;99.90;;;;;;5072630;28;20423;-61
2023/02/14 13:04:43;;;;;;;11.73;8.00;;;14.20;99.90;;;;;;5045856;28;20485;-62
2023/02/14 13:07:20;;;;;;;12.45;8.40;;;14.30;99.90;;;;;;5091182;28;20440;-61
2023/02/14 13:09:55;;;;;;;11.57;8.65;;;14.50;99.90;;;;;;5080544;28;20478;-62
2023/02/14 13:12:34;;;;;;;11.77;8.30;;;14.80;99.90;;;;;;5085475;28;20442;-63
2023/02/14 13:15:14;;;;;;;10.65;8.18;;;14.50;99.90;;;;;;5086074;28;20500;-63
2023/02/14 13:17:46;;;;;;;10.73;8.50;;;14.60;99.90;;;;;;5084977;28;20548;-63
2023/02/14 13:20:31;;;;;;;12.48;8.70;;;14.60;99.90;;;;;;5080383;28;20507;-64